Time;durP1;ratioP1;P1;durP2;ratioP2;P2;SDS_P1;SDS_P2;PMS_P1;PMS_P2;Temp;Humidity;BMP_temperature;BMP_pressure;BME280_temperature;BME280_humidity;BME280_pressure;Samples;Min_cycle;Max_cycle;Signal;HPM_P1;HPM_P2
2022/11/14 00:00:28;;;;;;;57.20;27.08;;;6.10;99.90;;;;;;5016384;28;20040;-80
2022/11/14 00:02:54;;;;;;;50.85;24.42;;;6.20;99.90;;;;;;5016364;28;20359;-80
2022/11/14 00:05:20;;;;;;;47.88;24.23;;;6.20;99.90;;;;;;5011714;28;20455;-80
2022/11/14 00:07:46;;;;;;;55.17;24.63;;;6.80;99.90;;;;;;5035598;28;20033;-80
2022/11/14 00:10:15;;;;;;;50.33;24.40;;;6.20;99.90;;;;;;5018949;28;20805;-80
2022/11/14 00:12:41;;;;;;;52.67;25.65;;;6.30;99.90;;;;;;5014708;28;20338;-79
2022/11/14 00:15:07;;;;;;;49.60;23.88;;;6.30;99.90;;;;;;5017603;28;20033;-79
2022/11/14 00:17:33;;;;;;;56.88;27.05;;;6.30;99.90;;;;;;5019297;28;20036;-79
2022/11/14 00:19:59;;;;;;;50.05;24.48;;;6.60;99.90;;;;;;5007977;28;20056;-80
2022/11/14 00:22:25;;;;;;;52.10;25.45;;;6.30;99.90;;;;;;5033167;28;20039;-81
2022/11/14 00:24:51;;;;;;;50.88;24.92;;;6.30;99.90;;;;;;4990152;28;20044;-81
2022/11/14 00:27:16;;;;;;;49.47;23.98;;;6.40;99.90;;;;;;5013728;28;20028;-80
2022/11/14 00:29:42;;;;;;;48.17;23.35;;;7.50;99.90;;;;;;5014164;28;20032;-80
2022/11/14 00:32:08;;;;;;;48.50;23.05;;;6.40;99.90;;;;;;5035536;28;20543;-80
2022/11/14 00:34:34;;;;;;;49.67;23.95;;;6.40;99.90;;;;;;5033467;28;20455;-80
2022/11/14 00:36:59;;;;;;;52.60;26.25;;;6.50;99.90;;;;;;5036446;28;20349;-79
2022/11/14 00:39:25;;;;;;;48.30;24.73;;;6.50;99.90;;;;;;5016388;28;20401;-80
2022/11/14 00:41:51;;;;;;;52.00;24.58;;;6.50;99.90;;;;;;5017135;28;20040;-80
2022/11/14 00:44:17;;;;;;;51.92;26.42;;;6.50;99.90;;;;;;5032605;28;20040;-80
2022/11/14 00:46:42;;;;;;;54.13;25.02;;;7.00;99.90;;;;;;5031368;28;20037;-81
2022/11/14 00:49:08;;;;;;;50.28;24.35;;;6.50;99.90;;;;;;4983756;28;20141;-80
2022/11/14 00:51:34;;;;;;;45.90;22.95;;;7.10;99.90;;;;;;5013735;28;20040;-80
2022/11/14 00:53:59;;;;;;;49.88;24.02;;;6.60;99.90;;;;;;4996124;28;20159;-80
2022/11/14 00:56:25;;;;;;;49.83;25.38;;;6.50;99.90;;;;;;5012817;28;20063;-80
2022/11/14 00:58:51;;;;;;;42.22;23.38;;;6.60;99.90;;;;;;5002136;28;20504;-80
2022/11/14 01:01:16;;;;;;;50.50;24.50;;;6.60;99.90;;;;;;5006525;28;20072;-78
2022/11/14 01:03:42;;;;;;;40.85;22.77;;;6.60;99.90;;;;;;5005341;28;20036;-78
2022/11/14 01:06:10;;;;;;;48.45;25.50;;;6.60;99.90;;;;;;5010880;28;20045;-80
2022/11/14 01:08:35;;;;;;;44.47;24.02;;;6.60;99.90;;;;;;5031739;28;20032;-80
2022/11/14 01:11:12;;;;;;;47.85;25.42;;;7.10;99.90;;;;;;5035990;28;20043;-80
2022/11/14 01:13:38;;;;;;;43.90;25.13;;;6.60;99.90;;;;;;5020215;28;20031;-79
2022/11/14 01:16:04;;;;;;;44.10;22.80;;;7.10;99.90;;;;;;5017447;28;20427;-80
2022/11/14 01:18:29;;;;;;;44.80;23.67;;;6.70;99.90;;;;;;4999193;28;20086;-80
2022/11/14 01:20:55;;;;;;;45.22;23.73;;;6.70;99.90;;;;;;5008590;28;20082;-80
2022/11/14 01:23:21;;;;;;;45.60;24.30;;;6.70;99.90;;;;;;5029489;28;20040;-80
2022/11/14 01:25:46;;;;;;;38.05;21.42;;;7.00;99.90;;;;;;4985247;28;20029;-80
2022/11/14 01:28:15;;;;;;;46.22;23.23;;;6.80;99.90;;;;;;5023913;28;20029;-80
2022/11/14 01:30:41;;;;;;;39.35;23.20;;;6.80;99.90;;;;;;5033906;28;20033;-80
2022/11/14 01:33:07;;;;;;;40.72;21.30;;;6.80;99.90;;;;;;4994460;28;20025;-79
2022/11/14 01:35:34;;;;;;;41.70;21.85;;;6.80;99.90;;;;;;4998126;28;20405;-80
2022/11/14 01:38:00;;;;;;;45.30;23.10;;;6.80;99.90;;;;;;5014155;28;20079;-80
2022/11/14 01:40:27;;;;;;;44.92;24.08;;;6.80;99.90;;;;;;5017611;28;20374;-79
2022/11/14 01:43:17;;;;;;;44.10;24.83;;;7.50;99.90;;;;;;5000096;28;20586;-79
2022/11/14 01:45:52;;;;;;;44.28;23.83;;;6.90;99.90;;;;;;5011665;28;20091;-80
2022/11/14 01:48:57;;;;;;;41.10;23.50;;;6.90;99.90;;;;;;5032129;28;20040;-79
2022/11/14 01:51:22;;;;;;;;;;;6.90;99.90;;;;;;5048384;28;20536;-80
2022/11/14 01:53:51;;;;;;;42.30;22.95;;;6.90;99.90;;;;;;5032864;28;20011;-80
2022/11/14 01:56:22;;;;;;;41.42;22.58;;;6.90;99.90;;;;;;5013926;28;20044;-79
2022/11/14 01:58:57;;;;;;;40.10;22.95;;;6.90;99.90;;;;;;5010538;28;20094;-78
2022/11/14 02:01:24;;;;;;;44.70;24.85;;;6.90;99.90;;;;;;5037362;28;20032;-80
2022/11/14 02:03:53;;;;;;;43.05;24.08;;;6.90;99.90;;;;;;5032028;28;20557;-79
2022/11/14 02:06:24;;;;;;;42.15;23.55;;;6.90;99.90;;;;;;5011997;28;20084;-80
2022/11/14 02:08:51;;;;;;;43.83;25.73;;;6.90;99.90;;;;;;5026890;28;20488;-77
2022/11/14 02:11:16;;;;;;;45.42;25.77;;;6.90;99.90;;;;;;5015618;28;20033;-79
2022/11/14 02:13:42;;;;;;;42.95;25.33;;;7.10;99.90;;;;;;5010598;28;20040;-79
2022/11/14 02:16:08;;;;;;;45.15;25.50;;;6.90;99.90;;;;;;5009062;28;20119;-81
2022/11/14 02:18:33;;;;;;;46.83;26.77;;;6.90;99.90;;;;;;5017309;28;20396;-80
2022/11/14 02:20:59;;;;;;;46.70;25.98;;;6.90;99.90;;;;;;5031152;28;20055;-80
2022/11/14 02:23:27;;;;;;;40.10;23.58;;;6.90;99.90;;;;;;4996575;28;20102;-80
2022/11/14 02:25:53;;;;;;;46.65;26.10;;;6.90;99.90;;;;;;5032811;28;20033;-80
2022/11/14 02:28:22;;;;;;;46.08;26.65;;;6.90;99.90;;;;;;5045127;28;20689;-80
2022/11/14 02:30:48;;;;;;;48.38;26.52;;;6.90;99.90;;;;;;4997317;28;20048;-80
2022/11/14 02:33:14;;;;;;;46.88;27.77;;;6.90;99.90;;;;;;5018962;28;20025;-80
2022/11/14 02:35:40;;;;;;;50.13;28.25;;;6.90;99.90;;;;;;4993970;28;20060;-80
2022/11/14 02:38:06;;;;;;;50.47;27.92;;;7.20;99.90;;;;;;5007826;28;20033;-80
2022/11/14 02:40:32;;;;;;;47.92;29.67;;;6.90;99.90;;;;;;4995060;28;20028;-78
2022/11/14 02:42:58;;;;;;;53.60;31.17;;;6.90;99.90;;;;;;4989599;28;20126;-79
2022/11/14 02:45:24;;;;;;;57.67;31.95;;;6.90;99.90;;;;;;5008498;28;20051;-77
2022/11/14 02:47:49;;;;;;;50.08;30.00;;;6.90;99.90;;;;;;4975592;28;20041;-79
2022/11/14 02:50:16;;;;;;;54.65;31.15;;;6.90;99.90;;;;;;5006058;28;20021;-78
2022/11/14 02:52:42;;;;;;;56.03;32.53;;;6.80;99.90;;;;;;5009145;28;20045;-77
2022/11/14 02:55:08;;;;;;;55.15;32.40;;;6.90;99.90;;;;;;4974488;28;20044;-77
2022/11/14 02:57:34;;;;;;;58.47;33.80;;;6.80;99.90;;;;;;4995066;28;20037;-80
2022/11/14 02:59:59;;;;;;;58.63;32.97;;;6.80;99.90;;;;;;5026215;28;20075;-79
2022/11/14 03:02:25;;;;;;;58.67;32.80;;;6.80;99.90;;;;;;4996481;28;20485;-79
2022/11/14 03:04:51;;;;;;;62.55;35.33;;;6.80;99.90;;;;;;5025766;28;20029;-80
2022/11/14 03:07:17;;;;;;;61.35;34.40;;;6.80;99.90;;;;;;5026280;28;20538;-77
2022/11/14 03:09:42;;;;;;;65.20;35.53;;;6.80;99.90;;;;;;4990045;28;20032;-79
2022/11/14 03:12:08;;;;;;;57.92;32.42;;;7.10;99.90;;;;;;5009846;28;20079;-79
2022/11/14 03:14:34;;;;;;;59.83;33.30;;;7.30;99.90;;;;;;5013365;28;20029;-80
2022/11/14 03:16:59;;;;;;;52.30;30.10;;;6.90;99.90;;;;;;5015160;28;20036;-80
2022/11/14 03:19:25;;;;;;;56.00;31.98;;;6.90;99.90;;;;;;4979732;28;20548;-79
2022/11/14 03:21:51;;;;;;;54.67;31.13;;;6.90;99.90;;;;;;5014078;28;20174;-79
2022/11/14 03:24:16;;;;;;;64.47;34.05;;;7.00;99.90;;;;;;5022199;28;20084;-80
2022/11/14 03:26:42;;;;;;;68.47;36.78;;;6.90;99.90;;;;;;5006088;28;20037;-81
2022/11/14 03:29:08;;;;;;;69.20;38.90;;;6.90;99.90;;;;;;5019240;28;20039;-80
2022/11/14 03:31:33;;;;;;;64.50;37.05;;;6.90;99.90;;;;;;5022494;28;20040;-80
2022/11/14 03:33:59;;;;;;;72.53;40.33;;;7.40;99.90;;;;;;5023786;28;20047;-79
2022/11/14 03:36:25;;;;;;;70.47;38.70;;;6.90;99.90;;;;;;5029645;28;20043;-77
2022/11/14 03:38:50;;;;;;;64.50;35.72;;;7.20;99.90;;;;;;5023494;28;20033;-77
2022/11/14 03:41:16;;;;;;;69.43;39.50;;;6.90;99.90;;;;;;4989952;28;20471;-81
2022/11/14 03:43:42;;;;;;;72.03;39.78;;;6.90;99.90;;;;;;5009314;28;20123;-79
2022/11/14 03:46:07;;;;;;;73.78;40.83;;;6.80;99.90;;;;;;5025851;28;20037;-78
2022/11/14 03:48:33;;;;;;;68.40;37.60;;;6.80;99.90;;;;;;4994139;28;20083;-80
2022/11/14 03:50:59;;;;;;;66.70;39.05;;;6.80;99.90;;;;;;5011904;28;20698;-80
2022/11/14 03:53:25;;;;;;;64.45;37.42;;;7.50;99.90;;;;;;5002426;28;20528;-80
2022/11/14 03:55:51;;;;;;;72.03;40.03;;;6.80;99.90;;;;;;4996012;28;20040;-79
2022/11/14 03:58:17;;;;;;;71.22;40.47;;;6.90;99.90;;;;;;5042927;28;20060;-80
2022/11/14 04:00:42;;;;;;;74.88;42.67;;;6.90;99.90;;;;;;5015192;28;20118;-80
2022/11/14 04:03:09;;;;;;;74.18;40.97;;;6.80;99.90;;;;;;4999779;28;20126;-79
2022/11/14 04:05:34;;;;;;;74.28;41.42;;;6.80;99.90;;;;;;4997269;28;20037;-80
2022/11/14 04:08:04;;;;;;;69.35;39.40;;;6.80;99.90;;;;;;5016440;28;20044;-79
2022/11/14 04:10:29;;;;;;;65.32;36.90;;;6.70;99.90;;;;;;5024227;28;20075;-79
2022/11/14 04:12:55;;;;;;;70.68;38.97;;;6.80;99.90;;;;;;5019332;28;20052;-80
2022/11/14 04:15:21;;;;;;;75.15;40.58;;;6.80;99.90;;;;;;4997521;28;20040;-80
2022/11/14 04:17:46;;;;;;;73.18;40.58;;;6.90;99.90;;;;;;5019141;28;20037;-78
2022/11/14 04:20:13;;;;;;;76.63;40.67;;;7.70;99.90;;;;;;5010827;28;20074;-79
2022/11/14 04:22:39;;;;;;;69.93;39.25;;;6.80;99.90;;;;;;5032168;28;20059;-80
2022/11/14 04:25:06;;;;;;;73.68;40.13;;;7.50;99.90;;;;;;5014097;28;20451;-80
2022/11/14 04:27:32;;;;;;;71.97;40.95;;;6.80;99.90;;;;;;5018245;28;20693;-78
2022/11/14 04:29:58;;;;;;;74.85;41.33;;;6.90;99.90;;;;;;5013193;28;20033;-80
2022/11/14 04:32:24;;;;;;;70.35;40.72;;;7.40;99.90;;;;;;5003285;28;20041;-80
2022/11/14 04:34:49;;;;;;;67.70;40.40;;;7.50;99.90;;;;;;5016373;28;20119;-80
2022/11/14 04:37:15;;;;;;;65.03;36.67;;;7.00;99.90;;;;;;5014602;28;20079;-78
2022/11/14 04:39:41;;;;;;;75.88;40.03;;;6.80;99.90;;;;;;5015673;28;20044;-79
2022/11/14 04:42:06;;;;;;;70.55;40.00;;;6.70;99.90;;;;;;5009118;28;20028;-80
2022/11/14 04:44:32;;;;;;;68.53;38.47;;;6.70;99.90;;;;;;5001687;28;20042;-80
2022/11/14 04:46:58;;;;;;;68.72;38.42;;;7.50;99.90;;;;;;5001005;28;20040;-79
2022/11/14 04:49:23;;;;;;;66.93;38.65;;;6.60;99.90;;;;;;5017474;28;20062;-79
2022/11/14 04:51:49;;;;;;;74.50;40.15;;;6.60;99.90;;;;;;4999810;28;20048;-80
2022/11/14 04:54:15;;;;;;;68.78;38.38;;;6.60;99.90;;;;;;5010731;28;20025;-80
2022/11/14 04:56:41;;;;;;;70.47;39.92;;;6.60;99.90;;;;;;4998196;28;20037;-79
2022/11/14 04:59:06;;;;;;;72.72;40.20;;;6.60;99.90;;;;;;5029211;28;20064;-79
2022/11/14 05:01:32;;;;;;;68.35;37.42;;;6.60;99.90;;;;;;5032092;28;20067;-80
2022/11/14 05:03:58;;;;;;;72.25;40.20;;;6.70;99.90;;;;;;5013436;28;20392;-80
2022/11/14 05:06:23;;;;;;;64.63;36.53;;;6.70;99.90;;;;;;5032789;28;20033;-79
2022/11/14 05:08:49;;;;;;;65.40;36.38;;;7.50;99.90;;;;;;5017933;28;20047;-80
2022/11/14 05:11:16;;;;;;;71.68;38.72;;;6.70;99.90;;;;;;5018877;28;20518;-79
2022/11/14 05:13:42;;;;;;;65.78;36.53;;;6.70;99.90;;;;;;5014025;28;20072;-78
2022/11/14 05:16:08;;;;;;;66.82;38.72;;;6.70;99.90;;;;;;5033149;28;20037;-80
2022/11/14 05:18:34;;;;;;;69.80;38.03;;;6.70;99.90;;;;;;5000800;28;20033;-77
2022/11/14 05:21:00;;;;;;;70.60;40.00;;;7.20;99.90;;;;;;5032545;28;20520;-79
2022/11/14 05:23:26;;;;;;;67.68;38.45;;;6.70;99.90;;;;;;5016780;28;20033;-80
2022/11/14 05:26:07;;;;;;;67.55;38.22;;;6.60;99.90;;;;;;5019387;28;20032;-78
2022/11/14 05:28:33;;;;;;;68.57;37.28;;;6.60;99.90;;;;;;5028999;28;20174;-79
2022/11/14 05:31:11;;;;;;;65.47;36.85;;;6.80;99.90;;;;;;5033540;28;20037;-79
2022/11/14 05:33:37;;;;;;;66.97;38.13;;;6.60;99.90;;;;;;5026544;28;20128;-79
2022/11/14 05:36:08;;;;;;;70.60;39.83;;;6.60;99.90;;;;;;5003738;28;20121;-80
2022/11/14 05:38:34;;;;;;;66.07;37.78;;;6.70;99.90;;;;;;5035032;28;20459;-78
2022/11/14 05:41:08;;;;;;;65.63;37.47;;;6.70;99.90;;;;;;5015559;28;20037;-79
2022/11/14 05:43:33;;;;;;;;;;;6.60;99.90;;;;;;5018830;28;20037;-78
2022/11/14 05:46:01;;;;;;;68.63;37.70;;;6.60;99.90;;;;;;5030026;28;19928;-80
2022/11/14 05:48:27;;;;;;;65.72;35.63;;;6.60;99.90;;;;;;5032847;28;20104;-80
2022/11/14 05:50:57;;;;;;;66.80;36.58;;;6.60;99.90;;;;;;5029960;28;20029;-79
2022/11/14 05:53:23;;;;;;;65.47;37.75;;;6.60;99.90;;;;;;5018825;28;20028;-80
2022/11/14 05:55:49;;;;;;;70.65;39.72;;;6.60;99.90;;;;;;5012268;28;20612;-79
2022/11/14 05:58:15;;;;;;;60.72;34.25;;;6.60;99.90;;;;;;4994574;28;20049;-79
2022/11/14 06:00:40;;;;;;;64.28;36.65;;;7.30;99.90;;;;;;5032275;28;20128;-80
2022/11/14 06:03:06;;;;;;;66.93;38.65;;;6.60;99.90;;;;;;5005054;28;20028;-80
2022/11/14 06:05:34;;;;;;;68.50;37.40;;;6.60;99.90;;;;;;5012413;28;20044;-80
2022/11/14 06:08:00;;;;;;;67.35;38.92;;;6.60;99.90;;;;;;5029691;28;20108;-79
2022/11/14 06:10:26;;;;;;;64.82;36.00;;;6.60;99.90;;;;;;5042042;28;20095;-79
2022/11/14 06:12:52;;;;;;;61.55;36.63;;;6.70;99.90;;;;;;5031613;28;20033;-78
2022/11/14 06:15:18;;;;;;;67.53;37.95;;;7.10;99.90;;;;;;5021395;28;20048;-80
2022/11/14 06:17:44;;;;;;;62.05;36.92;;;7.10;99.90;;;;;;5034288;28;20067;-79
2022/11/14 06:20:12;;;;;;;62.88;36.25;;;6.60;99.90;;;;;;5011735;28;20052;-77
2022/11/14 06:22:41;;;;;;;66.95;38.83;;;6.60;99.90;;;;;;5011566;28;20083;-80
2022/11/14 06:25:08;;;;;;;62.40;36.85;;;6.60;99.90;;;;;;4997757;28;20048;-80
2022/11/14 06:27:33;;;;;;;68.72;38.25;;;6.60;99.90;;;;;;5008708;28;20037;-80
2022/11/14 06:29:59;;;;;;;63.05;35.47;;;6.60;99.90;;;;;;4995963;28;20045;-81
2022/11/14 06:32:25;;;;;;;66.00;35.42;;;6.60;99.90;;;;;;5000647;28;20713;-81
2022/11/14 06:34:50;;;;;;;66.57;36.90;;;6.60;99.90;;;;;;4990373;28;20037;-79
2022/11/14 06:37:16;;;;;;;63.00;36.05;;;6.70;99.90;;;;;;4999709;28;20094;-81
2022/11/14 06:39:42;;;;;;;61.60;35.83;;;7.20;99.90;;;;;;5001958;28;20657;-79
2022/11/14 06:42:07;;;;;;;65.97;37.03;;;6.70;99.90;;;;;;5008969;28;20396;-80
2022/11/14 06:44:33;;;;;;;65.90;36.63;;;7.00;99.90;;;;;;5031118;28;20041;-81
2022/11/14 06:46:59;;;;;;;65.35;38.33;;;6.70;99.90;;;;;;5021895;28;20033;-79
2022/11/14 06:49:26;;;;;;;63.75;36.65;;;6.60;99.90;;;;;;5018399;28;20559;-80
2022/11/14 06:51:52;;;;;;;65.00;35.13;;;5.90;99.90;;;;;;5056018;28;20087;-79
2022/11/14 06:54:18;;;;;;;58.85;35.90;;;6.60;99.90;;;;;;5049521;28;20109;-81
2022/11/14 06:56:44;;;;;;;64.07;37.85;;;6.90;99.90;;;;;;5031387;28;20110;-79
2022/11/14 06:59:10;;;;;;;62.92;36.38;;;7.00;99.90;;;;;;4996944;28;20044;-81
2022/11/14 07:01:36;;;;;;;62.80;36.40;;;7.00;99.90;;;;;;4993588;28;20058;-81
2022/11/14 07:04:02;;;;;;;64.47;35.63;;;7.40;99.90;;;;;;5032750;28;20077;-80
2022/11/14 07:06:28;;;;;;;65.80;37.85;;;6.60;99.90;;;;;;5004030;28;20040;-81
2022/11/14 07:08:56;;;;;;;60.25;34.63;;;6.60;99.90;;;;;;5017680;28;20037;-80
2022/11/14 07:11:26;;;;;;;62.75;36.30;;;7.60;99.90;;;;;;5020992;28;20033;-81
2022/11/14 07:13:57;;;;;;;62.42;35.80;;;6.60;99.90;;;;;;5033930;28;20068;-79
2022/11/14 07:16:34;;;;;;;65.22;37.70;;;6.60;99.90;;;;;;5018792;28;20493;-79
2022/11/14 07:19:01;;;;;;;60.50;36.53;;;7.40;99.90;;;;;;5030176;28;20442;-79
2022/11/14 07:21:29;;;;;;;64.45;38.33;;;6.70;99.90;;;;;;5017355;28;20037;-80
2022/11/14 07:23:56;;;;;;;68.68;38.58;;;6.60;99.90;;;;;;5008490;28;20426;-79
2022/11/14 07:26:22;;;;;;;69.22;39.10;;;6.70;99.90;;;;;;5036840;28;20034;-81
2022/11/14 07:28:48;;;;;;;66.55;36.97;;;6.60;99.90;;;;;;5003899;28;20071;-81
2022/11/14 07:31:17;;;;;;;69.70;38.33;;;6.60;99.90;;;;;;5019367;28;20033;-80
2022/11/14 07:33:44;;;;;;;63.53;35.60;;;6.80;99.90;;;;;;5035436;28;20033;-80
2022/11/14 07:36:11;;;;;;;67.70;37.30;;;6.70;99.90;;;;;;5035293;28;20048;-81
2022/11/14 07:38:37;;;;;;;69.72;37.90;;;7.40;99.90;;;;;;5035976;28;20044;-81
2022/11/14 07:41:09;;;;;;;68.90;38.58;;;6.60;99.90;;;;;;5000471;28;20509;-81
2022/11/14 07:43:35;;;;;;;72.00;39.08;;;6.80;99.90;;;;;;5036991;28;20063;-81
2022/11/14 07:46:02;;;;;;;71.10;38.63;;;7.10;99.90;;;;;;5017120;28;20073;-80
2022/11/14 07:48:29;;;;;;;63.40;35.67;;;6.50;99.90;;;;;;5014606;28;20029;-81
2022/11/14 07:51:03;;;;;;;65.60;35.28;;;6.50;99.90;;;;;;5022396;28;20041;-80
2022/11/14 07:53:29;;;;;;;69.70;37.35;;;6.50;99.90;;;;;;5016648;28;20521;-81
2022/11/14 07:55:56;;;;;;;63.97;34.08;;;6.40;99.90;;;;;;5019955;28;20088;-81
2022/11/14 07:58:22;;;;;;;69.13;37.90;;;6.50;99.90;;;;;;5031563;28;20041;-81
2022/11/14 08:00:48;;;;;;;63.40;34.67;;;7.30;99.90;;;;;;5007427;28;20043;-80
2022/11/14 08:03:14;;;;;;;69.18;36.70;;;6.40;99.90;;;;;;5012788;28;20068;-81
2022/11/14 08:05:39;;;;;;;63.75;36.22;;;6.50;99.90;;;;;;5005046;28;20133;-81
2022/11/14 08:08:05;;;;;;;62.88;35.83;;;6.50;99.90;;;;;;5002452;28;20033;-82
2022/11/14 08:10:31;;;;;;;60.75;35.17;;;6.50;99.90;;;;;;5011035;28;20029;-81
2022/11/14 08:13:02;;;;;;;67.57;37.83;;;6.50;99.90;;;;;;5025424;28;20028;-82
2022/11/14 08:15:28;;;;;;;64.72;36.70;;;7.30;99.90;;;;;;5025392;28;20052;-79
2022/11/14 08:18:00;;;;;;;69.85;38.55;;;6.50;99.90;;;;;;5023083;28;20056;-81
2022/11/14 08:20:26;;;;;;;68.00;37.47;;;6.50;99.90;;;;;;5022811;28;20029;-81
2022/11/14 08:23:03;;;;;;;70.70;37.97;;;6.50;99.90;;;;;;5022051;28;20072;-81
2022/11/14 08:25:29;;;;;;;64.95;35.70;;;6.50;99.90;;;;;;5015821;28;20037;-82
2022/11/14 08:27:55;;;;;;;73.15;38.03;;;6.50;99.90;;;;;;4985791;28;20031;-82
2022/11/14 08:30:20;;;;;;;70.28;39.67;;;6.60;99.90;;;;;;5030044;28;20029;-78
2022/11/14 08:32:46;;;;;;;69.75;37.45;;;6.50;99.90;;;;;;4998850;28;20408;-80
2022/11/14 08:35:12;;;;;;;71.25;39.20;;;6.50;99.90;;;;;;4996018;28;20037;-80
2022/11/14 08:37:37;;;;;;;74.22;41.53;;;6.50;99.90;;;;;;5008560;28;20048;-81
2022/11/14 08:40:03;;;;;;;84.53;40.95;;;6.60;99.90;;;;;;5003317;28;20044;-81
2022/11/14 08:42:29;;;;;;;63.63;35.05;;;6.60;99.90;;;;;;5016967;28;20060;-81
2022/11/14 08:44:55;;;;;;;69.32;37.92;;;7.00;99.90;;;;;;5033714;28;20088;-80
2022/11/14 08:47:20;;;;;;;71.07;38.85;;;6.80;99.90;;;;;;5016313;28;20037;-80
2022/11/14 08:49:46;;;;;;;69.53;37.55;;;6.70;99.90;;;;;;5017698;28;20505;-80
2022/11/14 08:52:12;;;;;;;68.78;38.88;;;6.70;99.90;;;;;;5015217;28;20037;-79
2022/11/14 08:54:37;;;;;;;69.60;38.83;;;7.30;99.90;;;;;;4999497;28;20049;-80
2022/11/14 08:57:03;;;;;;;70.85;39.05;;;6.70;99.90;;;;;;4996217;28;20392;-80
2022/11/14 08:59:30;;;;;;;66.78;35.75;;;6.70;99.90;;;;;;5010884;28;20052;-78
2022/11/14 09:01:56;;;;;;;70.07;36.83;;;6.80;99.90;;;;;;5023766;28;20041;-80
2022/11/14 09:04:22;;;;;;;68.65;36.70;;;6.80;99.90;;;;;;5001841;28;20079;-80
2022/11/14 09:06:47;;;;;;;73.50;38.42;;;6.90;99.90;;;;;;5033042;28;20520;-80
2022/11/14 09:09:13;;;;;;;74.45;38.67;;;6.90;99.90;;;;;;5034148;28;20076;-81
2022/11/14 09:11:39;;;;;;;71.65;37.78;;;6.90;99.90;;;;;;5030214;28;20120;-80
2022/11/14 09:14:05;;;;;;;70.28;38.13;;;6.90;99.90;;;;;;5014568;28;20032;-79
2022/11/14 09:16:32;;;;;;;74.35;40.70;;;6.80;99.90;;;;;;5031557;28;20645;-81
2022/11/14 09:18:58;;;;;;;66.88;37.80;;;6.80;99.90;;;;;;5030034;28;20037;-81
2022/11/14 09:21:24;;;;;;;76.15;40.17;;;6.80;99.90;;;;;;5014014;28;20029;-80
2022/11/14 09:23:50;;;;;;;64.03;35.40;;;6.80;99.90;;;;;;5032933;28;20055;-81
2022/11/14 09:26:17;;;;;;;63.17;36.60;;;6.80;99.90;;;;;;5000392;28;20048;-78
2022/11/14 09:28:43;;;;;;;68.90;37.95;;;7.60;99.90;;;;;;5014527;28;20580;-80
2022/11/14 09:31:11;;;;;;;65.75;35.95;;;6.90;99.90;;;;;;5045000;28;20040;-81
2022/11/14 09:33:36;;;;;;;57.53;34.42;;;7.40;99.90;;;;;;5028938;28;20044;-81
2022/11/14 09:36:05;;;;;;;62.63;35.13;;;7.00;99.90;;;;;;4998505;28;20056;-80
2022/11/14 09:38:32;;;;;;;67.75;38.33;;;7.10;99.90;;;;;;5031571;28;20037;-80
2022/11/14 09:41:07;;;;;;;60.13;33.70;;;7.20;99.90;;;;;;5018482;28;20037;-81
2022/11/14 09:43:38;;;;;;;63.40;35.08;;;7.30;99.90;;;;;;5030811;28;20045;-81
2022/11/14 09:46:32;;;;;;;66.45;36.15;;;7.40;99.90;;;;;;5016197;28;20477;-81
2022/11/14 09:48:57;;;;;;;63.13;33.73;;;7.70;99.90;;;;;;5032079;28;20588;-80
2022/11/14 09:51:41;;;;;;;61.90;34.83;;;7.30;99.90;;;;;;5014717;28;20053;-79
2022/11/14 09:54:24;;;;;;;59.17;34.83;;;7.40;99.90;;;;;;5014195;28;20025;-81
2022/11/14 09:56:50;;;;;;;62.55;35.28;;;7.50;99.90;;;;;;5017319;28;20318;-80
2022/11/14 09:59:16;;;;;;;65.07;35.53;;;7.50;99.90;;;;;;4997515;28;20037;-78
2022/11/14 10:01:54;;;;;;;56.63;32.92;;;7.60;99.90;;;;;;5045929;28;20649;-81
2022/11/14 10:04:51;;;;;;;58.58;35.17;;;7.80;99.90;;;;;;5046750;28;20076;-80
2022/11/14 10:07:42;;;;;;;60.40;33.78;;;7.80;99.90;;;;;;5049403;28;20730;-81
2022/11/14 10:11:05;;;;;;;60.78;35.53;;;7.80;99.90;;;;;;5029507;28;20032;-80
2022/11/14 10:13:49;;;;;;;56.15;32.78;;;7.80;99.90;;;;;;5050028;28;20033;-80
2022/11/14 10:16:21;;;;;;;;;;;7.80;99.90;;;;;;5048995;28;20038;-80
2022/11/14 10:18:52;;;;;;;59.42;33.25;;;7.80;99.90;;;;;;5032402;28;19912;-80
2022/11/14 10:21:56;;;;;;;57.75;34.10;;;7.90;99.90;;;;;;5031836;28;20055;-80
2022/11/14 10:24:36;;;;;;;57.80;32.72;;;8.00;99.90;;;;;;5034076;28;20033;-79
2022/11/14 10:27:15;;;;;;;50.72;30.48;;;8.10;99.90;;;;;;5046728;28;20041;-79
2022/11/14 10:30:03;;;;;;;55.53;32.75;;;8.20;99.90;;;;;;5035041;28;20118;-79
2022/11/14 10:32:58;;;;;;;59.78;33.67;;;8.40;99.90;;;;;;5026485;28;20043;-80
2022/11/14 10:35:44;;;;;;;50.90;30.40;;;8.50;99.90;;;;;;5021127;28;20503;-81
2022/11/14 10:38:20;;;;;;;55.78;33.97;;;8.60;99.90;;;;;;5014101;28;20037;-80
2022/11/14 10:41:00;;;;;;;50.38;30.67;;;8.60;99.90;;;;;;5034242;28;20037;-80
2022/11/14 10:43:47;;;;;;;49.88;29.77;;;8.50;99.90;;;;;;5030455;28;20508;-79
2022/11/14 10:46:25;;;;;;;49.03;29.77;;;8.70;99.90;;;;;;5032834;28;20083;-80
2022/11/14 10:48:51;;;;;;;49.22;30.63;;;8.80;99.90;;;;;;5037878;28;20059;-80
2022/11/14 10:51:32;;;;;;;50.47;29.98;;;9.00;99.90;;;;;;5017023;28;20040;-79
2022/11/14 10:54:37;;;;;;;50.13;29.60;;;9.00;99.90;;;;;;5026862;28;20062;-79
2022/11/14 10:57:02;;;;;;;45.63;28.23;;;9.00;99.90;;;;;;5003062;28;20041;-79
2022/11/14 10:59:28;;;;;;;46.63;28.65;;;9.00;99.90;;;;;;5008925;28;20494;-80
2022/11/14 11:01:56;;;;;;;49.08;29.75;;;9.00;99.90;;;;;;4991430;28;20033;-79
2022/11/14 11:04:28;;;;;;;43.90;28.88;;;9.20;99.90;;;;;;5028941;28;20033;-79
2022/11/14 11:07:05;;;;;;;44.90;27.75;;;9.70;99.90;;;;;;5014811;28;20095;-78
2022/11/14 11:12:41;;;;;;;44.38;26.73;;;10.00;99.90;;;;;;5031002;28;20489;-78
2022/11/14 11:15:15;;;;;;;43.50;26.00;;;9.60;99.90;;;;;;5025445;28;20044;-77
2022/11/14 11:18:02;;;;;;;44.47;27.92;;;9.70;99.90;;;;;;5009851;28;20048;-79
2022/11/14 11:20:34;;;;;;;40.85;26.35;;;9.80;99.90;;;;;;5015556;28;20043;-79
2022/11/14 11:23:03;;;;;;;46.07;28.20;;;9.90;99.90;;;;;;5033105;28;20033;-79
2022/11/14 11:25:30;;;;;;;51.08;29.50;;;9.90;99.90;;;;;;5015617;28;20045;-80
2022/11/14 11:28:09;;;;;;;45.30;27.02;;;9.90;99.90;;;;;;5014554;28;20051;-79
2022/11/14 11:30:36;;;;;;;43.88;28.08;;;9.90;99.90;;;;;;5030014;28;20068;-81
2022/11/14 11:33:20;;;;;;;42.00;26.85;;;10.00;99.90;;;;;;5017811;28;20025;-78
2022/11/14 11:35:50;;;;;;;;;;;10.00;99.90;;;;;;5039654;28;20091;-78
2022/11/14 11:38:16;;;;;;;43.30;26.05;;;10.00;99.90;;;;;;5034283;28;19956;-80
2022/11/14 11:40:49;;;;;;;43.53;27.38;;;10.00;99.90;;;;;;5018801;28;20029;-80
2022/11/14 11:43:38;;;;;;;41.80;26.67;;;10.00;99.90;;;;;;5021538;28;20072;-78
2022/11/14 11:46:15;;;;;;;43.20;28.23;;;9.90;99.90;;;;;;5013114;28;20299;-79
2022/11/14 11:48:41;;;;;;;44.45;28.42;;;9.80;99.90;;;;;;5027427;28;20037;-79
2022/11/14 11:51:15;;;;;;;43.20;27.70;;;9.80;99.90;;;;;;5017229;28;20036;-78
2022/11/14 11:53:43;;;;;;;;;;;9.80;99.90;;;;;;5021289;28;20093;-79
2022/11/14 11:56:16;;;;;;;44.50;26.98;;;9.70;99.90;;;;;;5031565;28;19917;-79
2022/11/14 11:58:47;;;;;;;41.63;25.27;;;9.70;99.90;;;;;;5020939;28;20089;-78
2022/11/14 12:01:16;;;;;;;43.58;27.50;;;9.90;99.90;;;;;;5026056;28;20049;-78
2022/11/14 12:03:51;;;;;;;47.58;29.70;;;9.90;99.90;;;;;;5010842;28;20289;-78
2022/11/14 12:06:23;;;;;;;42.35;28.10;;;9.80;99.90;;;;;;5018877;28;20029;-78
2022/11/14 12:09:16;;;;;;;41.97;27.83;;;9.80;99.90;;;;;;5016944;28;20029;-80
2022/11/14 12:11:56;;;;;;;44.55;28.73;;;9.80;99.90;;;;;;5034666;28;20123;-78
2022/11/14 12:14:25;;;;;;;42.53;27.77;;;9.90;99.90;;;;;;5048162;28;20037;-79
2022/11/14 12:17:28;;;;;;;42.42;28.25;;;9.80;99.90;;;;;;5010045;28;20094;-78
2022/11/14 12:20:19;;;;;;;45.95;29.85;;;9.80;99.90;;;;;;5032935;28;20040;-77
2022/11/14 12:22:54;;;;;;;42.25;27.20;;;9.90;99.90;;;;;;5032941;28;20033;-77
2022/11/14 12:26:00;;;;;;;40.92;27.70;;;10.20;99.90;;;;;;5050761;28;20040;-78
2022/11/14 12:28:45;;;;;;;44.05;27.60;;;9.80;99.90;;;;;;5035893;28;20039;-78
2022/11/14 12:31:12;;;;;;;;;;;9.80;99.90;;;;;;5030673;28;20029;-78
2022/11/14 12:33:44;;;;;;;41.42;26.27;;;9.80;99.90;;;;;;5036162;28;20374;-79
2022/11/14 12:36:11;;;;;;;39.67;25.00;;;9.70;99.90;;;;;;5038665;28;20119;-79
2022/11/14 12:38:52;;;;;;;40.33;26.23;;;9.70;99.90;;;;;;5023297;28;20056;-80
2022/11/14 12:41:26;;;;;;;40.13;26.50;;;9.70;99.90;;;;;;5019517;28;20067;-80
2022/11/14 12:43:51;;;;;;;40.03;25.50;;;10.00;99.90;;;;;;5032236;28;20045;-82
2022/11/14 12:46:17;;;;;;;47.00;28.38;;;10.10;99.90;;;;;;5019362;28;20136;-80
2022/11/14 12:48:46;;;;;;;37.75;26.52;;;9.70;99.90;;;;;;5000556;28;20040;-80
2022/11/14 12:51:24;;;;;;;42.58;27.58;;;9.70;99.90;;;;;;5029623;28;20040;-80